Terminal Aerodrome Forecast
Issued by NWS

Home | Current Version | Previous Version | Text Only | Print | Product List | Glossary On
Versions: 1 2 3 4 5 6 7 8 9 10 11 12 13
869
FTUS42 KTBW 301128
TAFPGD
TAF
KPGD 301128Z 3012/3112 VRB04KT P6SM FEW070
     FM301600 29006KT P6SM SCT035 BKN090
     FM301800 28009KT P6SM VCTS SCT040CB BKN080
     FM310100 VRB03KT P6SM FEW050=

USA.gov is the U.S. government's official web portal to all federal, state and local government web resources and services.